CYYZ/YYZ METAR and TAF weather

Enter ICAO airport designator
Station Type Date Time Source
CYYZ METAR 2019/07/20 20:00 UTC NOAA

CYYZ 202000Z 27012G20KT 210V280 15SM FEW045 BKN055 OVC230 32/22 A2979 RMK CU1SC6CI1 SLP085 DENSITY ALT 2800FT


Station Type Date Time Source
CYYZ Decoded METAR 2019/07/20 20:00 UTC NOAA

Toronto Pearson Int'L. Ont., Canada (CYYZ) 43-40N 079-38W 173M
Jul 20, 2019 - 04:00 PM EDT / 2019.07.20 2000 UTC
Wind: from the W (270 degrees) at 14 MPH (12 KT) gusting to 23 MPH (20 KT) (direction variable):0
Visibility: 15 mile(s):0
Sky conditions: overcast
Temperature: 89 F (32 C)
Heat index: 95.0 F (35.0 C):1
Dew Point: 71 F (22 C)
Relative Humidity: 55%
Pressure (altimeter): 29.79 in. Hg (1008 hPa)
ob: CYYZ 202000Z 27012G20KT 210V280 15SM FEW045 BKN055 OVC230 32/22 A2979 RMK CU1SC6CI1 SLP085 DENSITY ALT 2800FT
cycle: 20

Station Type Date Time Source
CYYZ TAF 2019/07/20 18:42 UTC NOAA

TAF CYYZ 201738Z 2018/2124 21006KT P6SM FEW030 SCT250
FM202000 25010G20KT P6SM SCT040
TEMPO 2020/2023 P6SM VCTS BKN040CB
FM202300 28012G22KT P6SM BKN050 PROB30 2023/2103 VRB15G30KT 1SM +TSRA BR BKN015 OVC030CB
FM210300 30010KT P6SM SCT050
FM210500 32007KT P6SM SCT020 BKN050
FM211200 33010KT P6SM FEW030 SCT060
BECMG 2112/2114 28012KT
FM211500 28010KT P6SM FEW040 BKN080
FM211800 28008KT P6SM FEW040 SCT140
BECMG 2120/2122 32008KT
RMK NXT FCST BY 202100Z

Example: see airport list